createdAt,value
2019-05-02T00:01:38.059Z,41.97
2019-05-02T00:04:12.551Z,39.73
2019-05-02T00:06:42.981Z,40.80
2019-05-02T00:09:11.233Z,42.27
2019-05-02T00:11:42.073Z,41.67
2019-05-02T00:14:11.248Z,38.63
2019-05-02T00:16:45.161Z,41.80
2019-05-02T00:19:14.053Z,41.40
2019-05-02T00:21:43.154Z,40.33
2019-05-02T00:24:13.868Z,40.80
2019-05-02T00:26:42.837Z,41.87
2019-05-02T00:29:11.815Z,40.63
2019-05-02T00:31:46.310Z,41.83
2019-05-02T00:34:13.086Z,41.77
2019-05-02T00:36:42.288Z,43.43
2019-05-02T00:39:13.922Z,41.33
2019-05-02T00:41:43.789Z,43.17
2019-05-02T00:44:12.717Z,39.70
2019-05-02T00:46:41.814Z,40.07
2019-05-02T00:49:10.853Z,40.40
2019-05-02T00:51:39.739Z,40.83
2019-05-02T00:54:08.747Z,41.17
2019-05-02T00:56:40.264Z,41.13
2019-05-02T00:59:08.857Z,38.60
2019-05-02T01:02:09.398Z,41.00
2019-05-02T01:04:40.475Z,42.60
2019-05-02T01:07:10.029Z,38.43
2019-05-02T01:09:42.260Z,41.67
2019-05-02T01:12:10.443Z,40.93
2019-05-02T01:14:39.660Z,42.27
2019-05-02T01:17:08.943Z,41.60
2019-05-02T01:19:38.027Z,40.40
2019-05-02T01:22:10.733Z,42.63
2019-05-02T01:24:39.532Z,40.10
2019-05-02T01:27:28.624Z,42.00
2019-05-02T01:30:15.630Z,40.53
2019-05-02T01:32:52.237Z,40.80
2019-05-02T01:35:35.724Z,40.47
2019-05-02T01:38:26.270Z,41.10
2019-05-02T01:40:54.887Z,40.60
2019-05-02T01:43:26.111Z,40.73
2019-05-02T01:45:55.330Z,40.30
2019-05-02T01:48:25.818Z,41.33
2019-05-02T01:50:55.142Z,40.47
2019-05-02T01:53:29.229Z,40.90
2019-05-02T01:55:59.201Z,40.27
2019-05-02T01:58:28.010Z,41.27
2019-05-02T02:00:57.260Z,41.57
2019-05-02T02:03:26.242Z,42.93
2019-05-02T02:05:55.718Z,43.10
2019-05-02T02:08:27.270Z,40.23
2019-05-02T02:10:58.277Z,42.33
2019-05-02T02:13:31.155Z,40.57
2019-05-02T02:16:00.306Z,40.60
2019-05-02T02:18:32.760Z,41.13
2019-05-02T02:21:11.817Z,40.63
2019-05-02T02:24:06.161Z,40.23
2019-05-02T02:26:36.018Z,40.00
2019-05-02T02:29:08.015Z,40.33
2019-05-02T02:31:39.680Z,40.07
2019-05-02T02:34:07.283Z,40.77
2019-05-02T02:36:36.209Z,39.53
2019-05-02T02:39:14.156Z,40.33
2019-05-02T02:41:45.452Z,40.80
2019-05-02T02:44:39.403Z,38.37
2019-05-02T02:47:05.268Z,39.57
2019-05-02T02:49:34.357Z,39.20
2019-05-02T02:52:04.705Z,39.63
2019-05-02T02:54:36.572Z,38.70
2019-05-02T02:57:05.994Z,38.20
2019-05-02T02:59:35.092Z,38.03
2019-05-02T03:02:09.852Z,40.40
2019-05-02T03:04:35.006Z,38.83
2019-05-02T03:07:04.248Z,38.93
2019-05-02T03:09:33.494Z,36.20
2019-05-02T03:12:21.058Z,36.53
2019-05-02T03:14:53.954Z,36.07
2019-05-02T03:17:26.571Z,37.13
2019-05-02T03:20:01.208Z,37.00
2019-05-02T03:22:26.135Z,35.60
2019-05-02T03:24:55.133Z,37.23
2019-05-02T03:27:29.892Z,36.63
2019-05-02T03:29:56.011Z,37.23
2019-05-02T03:32:34.366Z,36.30
2019-05-02T03:34:56.973Z,38.67
2019-05-02T03:37:25.880Z,37.33
2019-05-02T03:40:00.543Z,37.00
2019-05-02T03:42:25.645Z,38.60
2019-05-02T03:44:58.709Z,37.47
2019-05-02T03:47:26.455Z,39.60
2019-05-02T03:49:55.410Z,36.83
2019-05-02T03:52:24.393Z,37.60
2019-05-02T03:54:53.374Z,37.10
2019-05-02T03:57:32.462Z,39.37
2019-05-02T03:59:53.258Z,38.57
2019-05-02T04:02:22.362Z,36.43
2019-05-02T04:04:54.246Z,35.93
2019-05-02T04:07:22.359Z,38.97
2019-05-02T04:09:51.867Z,37.93
2019-05-02T04:12:21.966Z,39.17
2019-05-02T04:14:55.293Z,40.53
2019-05-02T04:17:22.022Z,39.03
2019-05-02T04:19:51.135Z,41.43
2019-05-02T04:22:20.765Z,39.40
2019-05-02T04:24:54.600Z,38.73
2019-05-02T04:27:20.585Z,41.50
2019-05-02T04:29:49.573Z,39.73
2019-05-02T04:32:18.434Z,38.70
2019-05-02T04:34:54.939Z,40.97
2019-05-02T04:37:18.975Z,39.27
2019-05-02T04:39:49.155Z,41.63
2019-05-02T04:42:22.981Z,40.40
2019-05-02T04:45:11.870Z,39.43
2019-05-02T04:47:21.775Z,38.73
2019-05-02T04:49:52.085Z,40.53
2019-05-02T04:52:21.461Z,40.33
2019-05-02T04:54:50.557Z,40.73
2019-05-02T04:57:19.523Z,41.17
2019-05-02T04:59:50.461Z,41.60
2019-05-02T05:02:20.923Z,41.23
2019-05-02T05:04:50.075Z,43.43
2019-05-02T05:07:19.003Z,42.57
2019-05-02T05:09:57.157Z,42.20
2019-05-02T05:12:19.423Z,41.77
2019-05-02T05:14:48.845Z,40.40
2019-05-02T05:17:19.882Z,43.23
2019-05-02T05:19:48.872Z,43.10
2019-05-02T05:22:18.484Z,42.33
2019-05-02T05:25:03.042Z,41.90
2019-05-02T05:27:32.324Z,42.00
2019-05-02T05:30:07.935Z,43.63
2019-05-02T05:32:32.352Z,44.00
2019-05-02T05:35:03.441Z,42.87
2019-05-02T05:37:32.839Z,41.13
2019-05-02T05:40:01.755Z,43.33
2019-05-02T05:42:33.382Z,42.63
2019-05-02T05:45:03.974Z,42.40
2019-05-02T05:47:32.553Z,40.77
2019-05-02T05:50:01.859Z,41.30
2019-05-02T05:52:33.024Z,41.23
2019-05-02T05:55:04.751Z,40.03
2019-05-02T05:57:32.534Z,41.03
2019-05-02T06:00:03.790Z,41.80
2019-05-02T06:02:32.213Z,42.30
2019-05-02T06:05:09.639Z,41.30
2019-05-02T06:07:41.843Z,42.23
2019-05-02T06:10:12.365Z,41.67
2019-05-02T06:12:41.307Z,43.23
2019-05-02T06:15:10.408Z,43.87
2019-05-02T06:17:39.351Z,42.93
2019-05-02T06:20:08.298Z,42.37
2019-05-02T06:22:37.245Z,44.63
2019-05-02T06:25:09.464Z,44.27
2019-05-02T06:27:38.688Z,43.73
2019-05-02T06:30:09.854Z,43.77
2019-05-02T06:32:38.854Z,42.20
2019-05-02T06:35:08.112Z,42.07
2019-05-02T06:37:40.326Z,42.37
2019-05-02T06:40:09.425Z,41.03
2019-05-02T06:42:38.899Z,42.83
2019-05-02T06:45:08.931Z,41.67
2019-05-02T06:47:41.501Z,37.70
2019-05-02T06:50:10.985Z,39.57
2019-05-02T06:52:39.875Z,38.03
2019-05-02T06:55:09.101Z,39.33
2019-05-02T06:57:38.007Z,39.60
2019-05-02T07:00:08.412Z,38.70
2019-05-02T07:02:37.785Z,38.07
2019-05-02T07:05:07.436Z,34.73
2019-05-02T07:07:37.416Z,33.93
2019-05-02T07:10:07.484Z,34.40
2019-05-02T07:12:36.640Z,33.97
2019-05-02T07:15:08.522Z,35.47
2019-05-02T07:17:40.415Z,33.40
2019-05-02T07:20:09.676Z,30.70
2019-05-02T07:22:40.773Z,31.73
2019-05-02T07:25:09.940Z,33.83
2019-05-02T07:27:39.519Z,35.23
2019-05-02T07:30:10.783Z,35.03
2019-05-02T07:32:39.696Z,36.00
2019-05-02T07:35:08.716Z,33.27
2019-05-02T07:37:37.867Z,37.90
2019-05-02T07:40:07.230Z,37.73
2019-05-02T07:42:36.930Z,38.20
2019-05-02T07:45:09.276Z,37.57
2019-05-02T07:47:40.290Z,39.47
2019-05-02T07:50:10.268Z,38.47
2019-05-02T07:52:41.277Z,36.87
2019-05-02T07:55:10.917Z,35.90
2019-05-02T07:57:39.910Z,35.57
2019-05-02T08:00:09.778Z,36.20
2019-05-02T08:02:38.734Z,36.00
2019-05-02T08:05:08.950Z,34.97
2019-05-02T08:07:38.138Z,37.17
2019-05-02T08:10:07.341Z,39.73
2019-05-02T08:12:36.357Z,36.10
2019-05-02T08:15:07.409Z,35.07
2019-05-02T08:17:37.482Z,34.03
2019-05-02T08:20:08.638Z,32.60
2019-05-02T08:22:37.900Z,32.03
2019-05-02T08:25:10.422Z,33.93
2019-05-02T08:27:43.520Z,35.10
2019-05-02T08:30:40.385Z,32.00
2019-05-02T08:33:06.492Z,31.50
2019-05-02T08:35:35.478Z,32.20
2019-05-02T08:38:04.468Z,32.10
2019-05-02T08:40:33.560Z,35.40
2019-05-02T08:43:03.426Z,33.70
2019-05-02T08:45:38.091Z,33.60
2019-05-02T08:48:05.247Z,31.63
2019-05-02T08:50:34.775Z,35.83
2019-05-02T08:53:03.824Z,35.70
2019-05-02T08:55:33.089Z,31.13
2019-05-02T08:58:06.618Z,30.57
2019-05-02T09:00:37.430Z,30.17
2019-05-02T09:03:04.793Z,32.97
2019-05-02T09:05:36.990Z,33.00
2019-05-02T09:08:09.279Z,31.57
2019-05-02T09:10:37.055Z,30.00
2019-05-02T09:13:06.414Z,29.63
2019-05-02T09:15:39.907Z,29.27
2019-05-02T09:18:06.088Z,30.23
2019-05-02T09:20:34.994Z,30.77
2019-05-02T09:23:04.014Z,30.10
2019-05-02T09:25:33.189Z,28.57
2019-05-02T09:28:02.506Z,28.80
2019-05-02T09:30:32.685Z,28.27
2019-05-02T09:33:05.409Z,26.77
2019-05-02T09:35:32.874Z,33.93
2019-05-02T09:38:02.222Z,28.87
2019-05-02T09:40:31.883Z,30.20
2019-05-02T09:43:22.722Z,27.97
2019-05-02T09:45:52.020Z,30.47
2019-05-02T09:48:22.840Z,31.83
2019-05-02T09:50:52.836Z,29.93
2019-05-02T09:53:25.515Z,30.50
2019-05-02T09:55:57.668Z,30.27
2019-05-02T09:58:24.151Z,31.10
2019-05-02T10:01:15.065Z,30.63
2019-05-02T10:03:44.264Z,29.20
2019-05-02T10:06:18.042Z,29.63
2019-05-02T10:08:46.585Z,28.87
2019-05-02T10:11:16.901Z,27.67
2019-05-02T10:13:46.679Z,28.77
2019-05-02T10:16:17.899Z,29.27
2019-05-02T10:18:46.538Z,28.57
2019-05-02T10:21:17.197Z,28.77
2019-05-02T10:23:46.502Z,29.27
2019-05-02T10:26:19.977Z,28.10
2019-05-02T10:28:50.619Z,27.83
2019-05-02T10:31:17.334Z,28.10
2019-05-02T10:33:46.459Z,26.53
2019-05-02T10:36:19.744Z,27.73
2019-05-02T10:38:49.118Z,27.37
2019-05-02T10:41:18.976Z,26.63
2019-05-02T10:43:52.003Z,27.37
2019-05-02T10:46:27.775Z,29.27
2019-05-02T10:49:03.356Z,27.60
2019-05-02T10:51:36.002Z,27.97
2019-05-02T10:54:06.805Z,27.70
2019-05-02T10:56:36.276Z,29.17
2019-05-02T10:59:06.118Z,29.37
2019-05-02T11:01:52.166Z,26.87
2019-05-02T11:04:22.185Z,26.60
2019-05-02T11:06:52.298Z,26.23
2019-05-02T11:09:26.239Z,24.57
2019-05-02T11:11:55.546Z,25.63
2019-05-02T11:14:35.560Z,24.23
2019-05-02T11:17:23.656Z,25.07
2019-05-02T11:19:56.971Z,25.07
2019-05-02T11:22:26.009Z,24.60
2019-05-02T11:24:55.019Z,25.00
2019-05-02T11:27:24.870Z,26.13
2019-05-02T11:29:53.737Z,26.43
2019-05-02T11:32:22.685Z,26.43
2019-05-02T11:34:52.424Z,25.57
2019-05-02T11:37:22.611Z,25.93
2019-05-02T11:39:58.564Z,25.30
2019-05-02T11:42:27.123Z,25.43
2019-05-02T11:44:53.456Z,25.23
2019-05-02T11:47:26.479Z,25.13
2019-05-02T11:49:55.855Z,22.40
2019-05-02T11:52:27.349Z,24.67
2019-05-02T11:54:54.685Z,25.07
2019-05-02T11:57:30.292Z,20.70
2019-05-02T11:59:59.446Z,19.20
2019-05-02T12:02:49.082Z,17.10
2019-05-02T12:05:18.986Z,16.43
2019-05-02T12:07:48.045Z,17.77
2019-05-02T12:10:16.969Z,15.93
2019-05-02T12:12:45.857Z,20.33
2019-05-02T12:15:14.927Z,20.43
2019-05-02T12:17:44.133Z,18.50
2019-05-02T12:20:13.454Z,18.73
2019-05-02T12:22:42.778Z,19.30
2019-05-02T12:25:12.632Z,18.00
2019-05-02T12:27:42.556Z,18.47
2019-05-02T12:30:11.956Z,20.17
2019-05-02T12:32:42.769Z,18.77
2019-05-02T12:35:11.904Z,18.17
2019-05-02T12:37:42.425Z,17.50
2019-05-02T12:40:12.417Z,18.80
2019-05-02T12:42:41.929Z,18.40
2019-05-02T12:45:12.299Z,17.37
2019-05-02T12:47:42.803Z,18.40
2019-05-02T12:50:12.175Z,16.67
2019-05-02T12:52:42.913Z,17.07
2019-05-02T12:55:12.802Z,17.17
2019-05-02T12:57:42.847Z,15.53
2019-05-02T13:00:13.408Z,16.87
2019-05-02T13:03:02.022Z,17.53
2019-05-02T13:05:31.750Z,16.33
2019-05-02T13:08:02.541Z,17.50
2019-05-02T13:10:55.794Z,17.03
2019-05-02T13:13:22.017Z,16.37
2019-05-02T13:15:51.885Z,17.70
2019-05-02T13:18:23.356Z,17.70
2019-05-02T13:20:52.781Z,16.50
2019-05-02T13:23:43.327Z,16.70
2019-05-02T13:26:19.651Z,15.10
2019-05-02T13:28:44.214Z,15.70
2019-05-02T13:31:31.992Z,14.17
2019-05-02T13:34:14.886Z,13.77
2019-05-02T13:36:46.462Z,14.33
2019-05-02T13:39:39.839Z,14.73
2019-05-02T13:42:09.322Z,14.43
2019-05-02T13:44:44.802Z,15.30
2019-05-02T13:47:15.842Z,14.03
2019-05-02T13:49:53.910Z,15.93
2019-05-02T13:52:15.898Z,14.93
2019-05-02T13:54:45.070Z,15.00
2019-05-02T13:57:14.121Z,12.63
2019-05-02T13:59:43.302Z,13.07
2019-05-02T14:02:33.343Z,13.00
2019-05-02T14:05:02.428Z,12.37
2019-05-02T14:07:32.627Z,13.67
2019-05-02T14:10:05.485Z,14.77
2019-05-02T14:12:53.567Z,15.07
2019-05-02T14:15:25.228Z,14.80
2019-05-02T14:17:54.333Z,15.27
2019-05-02T14:20:23.425Z,14.07
2019-05-02T14:22:52.839Z,16.03
2019-05-02T14:25:22.521Z,14.97
2019-05-02T14:27:55.472Z,15.40
2019-05-02T14:30:36.243Z,15.77
2019-05-02T14:32:56.796Z,15.27
2019-05-02T14:35:28.520Z,15.60
2019-05-02T14:38:14.005Z,14.43
2019-05-02T14:41:03.251Z,15.17
2019-05-02T14:43:52.531Z,17.27
2019-05-02T14:46:23.831Z,19.40
2019-05-02T14:48:53.318Z,21.40
2019-05-02T14:51:27.446Z,22.07
2019-05-02T14:53:57.454Z,23.30
2019-05-02T14:56:37.539Z,23.70
2019-05-02T14:59:09.134Z,23.20
2019-05-02T15:01:38.781Z,23.47
2019-05-02T15:04:08.431Z,24.57
2019-05-02T15:06:38.314Z,22.83
2019-05-02T15:09:09.055Z,24.40
2019-05-02T15:11:57.951Z,24.30
2019-05-02T15:14:32.902Z,24.17
2019-05-02T15:17:02.839Z,24.53
2019-05-02T15:19:32.912Z,25.13
2019-05-02T15:22:02.523Z,23.50
2019-05-02T15:24:36.138Z,24.13
2019-05-02T15:27:11.361Z,23.70
2019-05-02T15:29:33.658Z,24.07
2019-05-02T15:32:12.836Z,22.30
2019-05-02T15:35:05.945Z,25.27
2019-05-02T15:37:35.998Z,26.10
2019-05-02T15:42:36.438Z,27.30
2019-05-02T15:45:05.911Z,25.13
2019-05-02T15:47:37.075Z,27.00
2019-05-02T15:50:06.691Z,27.03
2019-05-02T15:53:03.105Z,28.77
2019-05-02T15:55:38.883Z,27.90
2019-05-02T15:58:03.611Z,28.20
2019-05-02T16:00:39.020Z,29.93
2019-05-02T16:03:08.312Z,31.40
2019-05-02T16:05:41.173Z,19.27
2019-05-02T16:08:08.838Z,21.80
2019-05-02T16:10:38.935Z,26.30
2019-05-02T16:13:15.469Z,24.53
2019-05-02T16:15:40.371Z,23.17
2019-05-02T16:18:09.933Z,23.67
2019-05-02T16:21:04.476Z,25.77
2019-05-02T16:23:29.493Z,26.10
2019-05-02T16:25:56.910Z,29.57
2019-05-02T16:28:23.732Z,30.87
2019-05-02T16:30:54.477Z,32.80
2019-05-02T16:33:23.475Z,33.23
2019-05-02T16:35:54.448Z,35.33
2019-05-02T16:38:26.869Z,35.33
2019-05-02T16:40:54.736Z,35.00
2019-05-02T16:43:25.580Z,36.60
2019-05-02T16:45:54.696Z,36.00
2019-05-02T16:48:23.988Z,36.37
2019-05-02T16:50:53.068Z,36.90
2019-05-02T16:53:26.053Z,29.80
2019-05-02T16:55:53.689Z,30.33
2019-05-02T16:58:22.869Z,27.73
2019-05-02T17:00:52.893Z,26.83
2019-05-02T17:03:26.267Z,28.87
2019-05-02T17:05:54.449Z,27.57
2019-05-02T17:08:32.733Z,25.97
2019-05-02T17:11:09.625Z,26.27
2019-05-02T17:13:38.671Z,24.53
2019-05-02T17:16:15.181Z,24.73
2019-05-02T17:18:38.449Z,25.03
2019-05-02T17:21:07.505Z,22.77
2019-05-02T17:23:37.450Z,24.30
2019-05-02T17:26:07.398Z,21.20
2019-05-02T17:28:38.080Z,19.73
2019-05-02T17:31:10.740Z,20.23
2019-05-02T17:33:38.383Z,18.73
2019-05-02T17:36:07.453Z,18.90
2019-05-02T17:38:37.650Z,18.77
2019-05-02T17:41:07.904Z,19.67
2019-05-02T17:43:42.226Z,17.00
2019-05-02T17:46:12.601Z,17.83
2019-05-02T17:48:40.197Z,18.00
2019-05-02T17:51:28.358Z,17.73
2019-05-02T17:53:57.896Z,17.43
2019-05-02T17:56:27.112Z,17.17
2019-05-02T17:58:58.283Z,17.50
2019-05-02T18:01:34.869Z,16.83
2019-05-02T18:04:06.879Z,14.77
2019-05-02T18:06:35.590Z,15.53
2019-05-02T18:09:05.810Z,14.93
2019-05-02T18:11:37.666Z,15.03
2019-05-02T18:14:10.577Z,13.83
2019-05-02T18:16:39.100Z,15.80
2019-05-02T18:19:07.249Z,16.40
2019-05-02T18:21:36.561Z,16.20
2019-05-02T18:24:06.203Z,16.17
2019-05-02T18:26:35.401Z,16.30
2019-05-02T18:29:06.895Z,17.13
2019-05-02T18:31:40.041Z,16.53
2019-05-02T18:34:06.440Z,17.47
2019-05-02T18:36:35.400Z,17.47
2019-05-02T18:39:06.181Z,18.43
2019-05-02T18:41:37.408Z,18.13
2019-05-02T18:44:06.140Z,17.83
2019-05-02T18:46:36.799Z,19.23
2019-05-02T18:49:05.909Z,18.90
2019-05-02T18:51:34.944Z,18.60
2019-05-02T18:54:07.455Z,18.60
2019-05-02T18:56:42.337Z,18.50
2019-05-02T18:59:05.803Z,19.90
2019-05-02T19:01:34.759Z,18.97
2019-05-02T19:04:04.070Z,19.53
2019-05-02T19:06:36.087Z,18.87
2019-05-02T19:09:06.793Z,20.20
2019-05-02T19:11:36.060Z,21.43
2019-05-02T19:14:05.201Z,21.33
2019-05-02T19:16:34.448Z,21.30
2019-05-02T19:19:03.503Z,20.17
2019-05-02T19:21:36.144Z,21.13
2019-05-02T19:24:03.534Z,22.50
2019-05-02T19:26:32.710Z,21.57
2019-05-02T19:29:21.582Z,21.30
2019-05-02T19:31:52.657Z,22.00
2019-05-02T19:34:26.411Z,22.53
2019-05-02T19:36:53.048Z,22.70
2019-05-02T19:39:24.217Z,21.03
2019-05-02T19:41:52.955Z,20.23
2019-05-02T19:44:28.909Z,21.27
2019-05-02T19:46:53.592Z,19.90
2019-05-02T19:49:25.353Z,21.00
2019-05-02T19:51:56.338Z,20.47
2019-05-02T19:57:36.668Z,21.00
2019-05-02T20:00:12.150Z,20.63
2019-05-02T20:02:42.260Z,21.10
2019-05-02T20:06:28.676Z,19.33
2019-05-02T20:07:59.733Z,20.33
2019-05-02T20:10:28.832Z,21.27
2019-05-02T20:12:57.893Z,21.33
2019-05-02T20:15:50.071Z,22.67
2019-05-02T20:18:24.141Z,22.93
2019-05-02T20:21:02.711Z,23.17
2019-05-02T20:24:02.060Z,23.57
2019-05-02T20:26:41.769Z,21.80
2019-05-02T20:29:21.129Z,21.73
2019-05-02T20:31:54.576Z,22.40
2019-05-02T20:34:27.600Z,23.07
2019-05-02T20:37:44.738Z,22.17
2019-05-02T20:39:41.773Z,22.27
2019-05-02T20:42:15.852Z,23.27
2019-05-02T20:44:52.800Z,21.73
2019-05-02T20:47:25.153Z,19.40
2019-05-02T20:49:55.818Z,19.03
2019-05-02T20:52:24.854Z,19.73
2019-05-02T20:54:56.792Z,19.27
2019-05-02T20:57:25.851Z,19.73
2019-05-02T20:59:54.911Z,20.03
2019-05-02T21:02:24.296Z,20.80
2019-05-02T21:04:53.199Z,20.83
2019-05-02T21:07:47.232Z,21.07
2019-05-02T21:10:41.770Z,20.73
2019-05-02T21:13:13.210Z,20.43
2019-05-02T21:15:42.308Z,20.77
2019-05-02T21:18:11.680Z,20.80
2019-05-02T21:20:41.795Z,19.60
2019-05-02T21:23:12.050Z,17.00
2019-05-02T21:25:41.758Z,13.00
2019-05-02T21:28:11.946Z,10.87
2019-05-02T21:30:41.611Z,9.20
2019-05-02T21:33:45.635Z,9.03
2019-05-02T21:36:14.673Z,7.87
2019-05-02T21:38:43.637Z,7.20
2019-05-02T21:41:12.818Z,7.47
2019-05-02T21:43:42.473Z,8.30
2019-05-02T21:46:11.707Z,8.00
2019-05-02T21:48:42.028Z,9.30
2019-05-02T21:51:34.756Z,9.03
2019-05-02T21:54:25.838Z,8.10
2019-05-02T21:57:00.150Z,8.97
2019-05-02T21:59:30.614Z,8.17
2019-05-02T22:02:02.271Z,8.47
2019-05-02T22:04:31.897Z,8.57
2019-05-02T22:07:00.956Z,8.57
2019-05-02T22:09:32.179Z,8.97
2019-05-02T22:12:01.420Z,9.30
2019-05-02T22:14:32.701Z,8.80
2019-05-02T22:17:03.069Z,9.27
2019-05-02T22:19:32.680Z,8.53
2019-05-02T22:22:01.725Z,8.60
2019-05-02T22:24:30.780Z,8.30
2019-05-02T22:27:01.930Z,7.73
2019-05-02T22:29:32.484Z,7.73
2019-05-02T22:32:03.005Z,7.27
2019-05-02T22:34:32.773Z,6.80
2019-05-02T22:37:03.791Z,8.70
2019-05-02T22:39:44.418Z,8.00
2019-05-02T22:42:13.429Z,7.60
2019-05-02T22:44:42.343Z,7.13
2019-05-02T22:47:11.780Z,7.10
2019-05-02T22:49:42.451Z,7.70
2019-05-02T22:52:12.215Z,6.13
2019-05-02T22:54:42.279Z,6.87
2019-05-02T22:57:11.548Z,6.70
2019-05-02T22:59:42.340Z,6.97
2019-05-02T23:02:12.748Z,7.23
2019-05-02T23:04:41.921Z,8.03
2019-05-02T23:07:12.673Z,6.80
2019-05-02T23:09:43.606Z,6.53
2019-05-02T23:12:13.188Z,7.13
2019-05-02T23:14:42.723Z,6.27
2019-05-02T23:17:12.706Z,6.63
2019-05-02T23:19:42.338Z,7.13
2019-05-02T23:22:12.669Z,6.73
2019-05-02T23:25:03.355Z,7.53
2019-05-02T23:27:39.227Z,6.40
2019-05-02T23:30:14.116Z,6.90
2019-05-02T23:32:42.516Z,6.30
2019-05-02T23:35:12.443Z,6.80
2019-05-02T23:37:42.238Z,6.87
2019-05-02T23:40:12.463Z,7.07
2019-05-02T23:42:41.803Z,6.83
2019-05-02T23:45:12.089Z,6.93
2019-05-02T23:47:42.199Z,6.97
2019-05-02T23:50:12.173Z,6.60
2019-05-02T23:52:41.499Z,7.37
2019-05-02T23:55:12.250Z,7.20
2019-05-02T23:57:42.020Z,7.20
